Главная страница
METAR-TAF:

METAR-TAF

Аэропорты :

Кюрасао, Нидерландские Антильские острова

широта: 12-12N, долгота: 068-58W, высота над уровнем моря: 9 м

Текущие метеонаблюдения

Эта сводка был подготовлена 1 час и 9 минут назад, в 13:00 UTC
Ветер 13 Узел от восточный
Температура 29°C
Влажность 70%
Давление 1015 hPa
Видимость 10 км и более

METAR: TNCC 241300Z AUTO 10013KT 9999 NCD 29/23 Q1015 NOSIG

Время: 10:09 (14:09 UTC)

Прогноз

Прогноз действительный с 24-го 12 UTC до 25-го 12 UTC
Ветер 15 Узел от восточный
Видимость 10 км и более
небольшая облачность на высоте 2500 фута
Вероятность 30% :
временами
С 24-го 12 UTC до 24-го 16 UTC
Рассеянная облачность на высоте 2000 фута

TAF: TNCC 2412/2512 09015KT 9999 FEW025 PROB30 TEMPO 2412/2416 BKN020

Метеонаблюдения и прогнозы для более 4000 аэропортов (сводки METAR и TAF).

Имеющиеся станции представлены на карте желтыми и красными точками.

Чтобы увидеть название станции, наведите на нее мышь.

Затем щелкните, чтобы увидеть метеонаблюдения и метеопрогнозы.

Управление картой: чтобы увеличить масштаб, щелкните зеленые кнопки с черным крестиком; чтобы уменьшить масштаб, щелкните зеленую кнопку с тире; для просмотра соседних карт щелкайте зеленые стрелки.


METAR-TAF: